sensor_id;sensor_type;location;lat;lon;timestamp;P1;P2;P0
65383;PMS5003;51986;52.788;41.368;2023-04-03T00:00:37;28.25;24.50;19.25
65383;PMS5003;51986;52.788;41.368;2023-04-03T00:03:04;21.50;20.75;15.50
65383;PMS5003;51986;52.788;41.368;2023-04-03T00:05:31;25.50;21.75;17.00
65383;PMS5003;51986;52.788;41.368;2023-04-03T00:07:58;31.00;25.25;19.00
65383;PMS5003;51986;52.788;41.368;2023-04-03T00:10:25;30.00;24.00;19.00
65383;PMS5003;51986;52.788;41.368;2023-04-03T00:12:53;24.25;21.00;16.75
65383;PMS5003;51986;52.788;41.368;2023-04-03T00:15:20;27.25;24.00;18.00
65383;PMS5003;51986;52.788;41.368;2023-04-03T00:17:47;25.00;22.50;18.00
65383;PMS5003;51986;52.788;41.368;2023-04-03T00:20:14;31.75;26.00;20.00
65383;PMS5003;51986;52.788;41.368;2023-04-03T00:22:40;22.50;20.00;15.25
65383;PMS5003;51986;52.788;41.368;2023-04-03T00:25:07;21.50;19.00;15.00
65383;PMS5003;51986;52.788;41.368;2023-04-03T00:27:36;27.50;22.75;17.75
65383;PMS5003;51986;52.788;41.368;2023-04-03T00:30:03;30.25;26.25;20.00
65383;PMS5003;51986;52.788;41.368;2023-04-03T00:32:31;22.50;21.00;15.75
65383;PMS5003;51986;52.788;41.368;2023-04-03T00:34:58;26.50;23.00;17.50
65383;PMS5003;51986;52.788;41.368;2023-04-03T00:37:25;31.25;26.00;20.50
65383;PMS5003;51986;52.788;41.368;2023-04-03T00:39:52;27.00;22.50;18.00
65383;PMS5003;51986;52.788;41.368;2023-04-03T00:42:19;25.00;21.00;16.25
65383;PMS5003;51986;52.788;41.368;2023-04-03T00:47:14;27.75;24.00;18.25
65383;PMS5003;51986;52.788;41.368;2023-04-03T00:49:43;31.00;26.00;20.50
65383;PMS5003;51986;52.788;41.368;2023-04-03T00:52:13;22.00;20.50;15.25
65383;PMS5003;51986;52.788;41.368;2023-04-03T00:54:43;19.00;18.25;15.00
65383;PMS5003;51986;52.788;41.368;2023-04-03T00:57:13;21.00;19.00;15.00
65383;PMS5003;51986;52.788;41.368;2023-04-03T00:59:42;24.00;20.75;16.00
65383;PMS5003;51986;52.788;41.368;2023-04-03T01:02:15;27.25;23.50;18.25
65383;PMS5003;51986;52.788;41.368;2023-04-03T01:04:43;28.00;24.00;19.00
65383;PMS5003;51986;52.788;41.368;2023-04-03T01:07:12;25.50;22.25;17.00
65383;PMS5003;51986;52.788;41.368;2023-04-03T01:09:44;19.75;18.50;13.00
65383;PMS5003;51986;52.788;41.368;2023-04-03T01:12:17;22.00;18.50;13.50
65383;PMS5003;51986;52.788;41.368;2023-04-03T01:14:50;30.50;25.00;18.75
65383;PMS5003;51986;52.788;41.368;2023-04-03T01:23:36;29.00;25.50;19.25
65383;PMS5003;51986;52.788;41.368;2023-04-03T01:25:53;31.00;26.00;20.50
65383;PMS5003;51986;52.788;41.368;2023-04-03T01:33:28;24.00;22.00;16.00
65383;PMS5003;51986;52.788;41.368;2023-04-03T01:35:55;18.75;17.25;13.00
65383;PMS5003;51986;52.788;41.368;2023-04-03T01:38:23;17.00;16.00;13.00
65383;PMS5003;51986;52.788;41.368;2023-04-03T01:40:50;18.25;16.75;12.00
65383;PMS5003;51986;52.788;41.368;2023-04-03T01:43:17;25.75;22.00;17.00
65383;PMS5003;51986;52.788;41.368;2023-04-03T01:45:45;22.75;20.00;15.75
65383;PMS5003;51986;52.788;41.368;2023-04-03T01:48:12;19.00;19.00;14.00
65383;PMS5003;51986;52.788;41.368;2023-04-03T01:50:39;20.50;19.25;13.00
65383;PMS5003;51986;52.788;41.368;2023-04-03T01:53:06;22.75;21.25;15.50
65383;PMS5003;51986;52.788;41.368;2023-04-03T01:55:33;24.00;21.50;16.00
65383;PMS5003;51986;52.788;41.368;2023-04-03T01:58:01;20.00;17.75;13.50
65383;PMS5003;51986;52.788;41.368;2023-04-03T02:00:28;18.50;16.25;13.25
65383;PMS5003;51986;52.788;41.368;2023-04-03T02:02:55;16.50;15.50;12.00
65383;PMS5003;51986;52.788;41.368;2023-04-03T02:05:22;19.00;18.00;15.00
65383;PMS5003;51986;52.788;41.368;2023-04-03T02:07:50;19.75;18.00;13.25
65383;PMS5003;51986;52.788;41.368;2023-04-03T02:10:17;20.25;17.75;13.00
65383;PMS5003;51986;52.788;41.368;2023-04-03T02:12:45;27.25;23.00;17.75
65383;PMS5003;51986;52.788;41.368;2023-04-03T02:15:12;25.00;21.25;17.00
65383;PMS5003;51986;52.788;41.368;2023-04-03T02:17:40;23.50;21.50;17.00
65383;PMS5003;51986;52.788;41.368;2023-04-03T02:20:07;20.00;19.50;15.00
65383;PMS5003;51986;52.788;41.368;2023-04-03T02:22:35;20.75;20.25;14.75
65383;PMS5003;51986;52.788;41.368;2023-04-03T02:25:02;21.00;20.00;15.00
65383;PMS5003;51986;52.788;41.368;2023-04-03T02:27:29;19.00;17.00;14.50
65383;PMS5003;51986;52.788;41.368;2023-04-03T02:29:56;19.00;18.00;13.00
65383;PMS5003;51986;52.788;41.368;2023-04-03T02:32:23;15.50;15.00;12.75
65383;PMS5003;51986;52.788;41.368;2023-04-03T02:34:50;24.50;22.00;18.00
65383;PMS5003;51986;52.788;41.368;2023-04-03T02:37:17;20.25;19.50;15.00
65383;PMS5003;51986;52.788;41.368;2023-04-03T02:39:45;27.25;23.50;19.00
65383;PMS5003;51986;52.788;41.368;2023-04-03T02:42:12;21.75;19.75;15.25
65383;PMS5003;51986;52.788;41.368;2023-04-03T02:44:40;21.00;19.00;15.00
65383;PMS5003;51986;52.788;41.368;2023-04-03T02:47:08;22.00;20.00;15.00
65383;PMS5003;51986;52.788;41.368;2023-04-03T02:49:35;19.25;19.25;15.00
65383;PMS5003;51986;52.788;41.368;2023-04-03T02:52:02;25.00;22.50;17.25
65383;PMS5003;51986;52.788;41.368;2023-04-03T02:54:29;28.00;24.00;18.00
65383;PMS5003;51986;52.788;41.368;2023-04-03T02:57:00;21.75;20.00;14.00
65383;PMS5003;51986;52.788;41.368;2023-04-03T02:59:27;21.00;20.25;15.25
65383;PMS5003;51986;52.788;41.368;2023-04-03T03:01:54;23.00;21.00;16.00
65383;PMS5003;51986;52.788;41.368;2023-04-03T03:04:21;22.00;21.00;15.00
65383;PMS5003;51986;52.788;41.368;2023-04-03T03:06:48;22.75;21.75;16.75
65383;PMS5003;51986;52.788;41.368;2023-04-03T03:09:14;30.75;26.25;20.50
65383;PMS5003;51986;52.788;41.368;2023-04-03T03:11:41;26.25;23.00;18.50
65383;PMS5003;51986;52.788;41.368;2023-04-03T03:14:09;23.00;21.00;16.00
65383;PMS5003;51986;52.788;41.368;2023-04-03T03:16:36;26.00;21.75;17.00
65383;PMS5003;51986;52.788;41.368;2023-04-03T03:19:03;27.00;23.75;18.00
65383;PMS5003;51986;52.788;41.368;2023-04-03T03:21:30;22.50;21.00;16.00
65383;PMS5003;51986;52.788;41.368;2023-04-03T03:23:57;27.25;23.75;18.25
65383;PMS5003;51986;52.788;41.368;2023-04-03T03:26:24;23.00;20.25;15.25
65383;PMS5003;51986;52.788;41.368;2023-04-03T03:28:51;20.25;18.75;15.00
65383;PMS5003;51986;52.788;41.368;2023-04-03T03:31:18;25.25;22.00;17.00
65383;PMS5003;51986;52.788;41.368;2023-04-03T03:33:45;23.00;20.25;15.00
65383;PMS5003;51986;52.788;41.368;2023-04-03T03:36:12;20.00;18.00;15.00
65383;PMS5003;51986;52.788;41.368;2023-04-03T03:38:39;25.00;22.00;17.00
65383;PMS5003;51986;52.788;41.368;2023-04-03T03:41:06;21.25;20.00;16.00
65383;PMS5003;51986;52.788;41.368;2023-04-03T03:43:34;24.50;21.50;17.50
65383;PMS5003;51986;52.788;41.368;2023-04-03T03:46:02;26.25;23.00;17.25
65383;PMS5003;51986;52.788;41.368;2023-04-03T03:48:29;28.00;24.00;18.75
65383;PMS5003;51986;52.788;41.368;2023-04-03T03:50:56;27.00;24.00;19.00
65383;PMS5003;51986;52.788;41.368;2023-04-03T03:53:28;28.00;24.00;19.00
65383;PMS5003;51986;52.788;41.368;2023-04-03T03:55:59;25.75;22.00;17.00
65383;PMS5003;51986;52.788;41.368;2023-04-03T03:58:28;20.00;19.00;15.00
65383;PMS5003;51986;52.788;41.368;2023-04-03T04:00:56;23.75;21.25;16.75
65383;PMS5003;51986;52.788;41.368;2023-04-03T04:03:23;24.50;22.50;17.25
65383;PMS5003;51986;52.788;41.368;2023-04-03T04:05:50;24.00;21.50;17.00
65383;PMS5003;51986;52.788;41.368;2023-04-03T04:08:18;24.00;22.00;17.50
65383;PMS5003;51986;52.788;41.368;2023-04-03T04:10:45;29.00;25.00;19.00
65383;PMS5003;51986;52.788;41.368;2023-04-03T04:13:15;30.50;26.00;19.00
65383;PMS5003;51986;52.788;41.368;2023-04-03T04:15:43;20.75;20.25;15.25
65383;PMS5003;51986;52.788;41.368;2023-04-03T04:18:10;20.25;20.00;15.00
65383;PMS5003;51986;52.788;41.368;2023-04-03T04:20:39;25.00;21.50;17.00
65383;PMS5003;51986;52.788;41.368;2023-04-03T04:23:07;29.00;24.00;19.00
65383;PMS5003;51986;52.788;41.368;2023-04-03T04:25:35;26.00;23.00;17.75
65383;PMS5003;51986;52.788;41.368;2023-04-03T04:28:04;27.50;24.50;19.00
65383;PMS5003;51986;52.788;41.368;2023-04-03T04:30:31;27.50;24.50;18.00
65383;PMS5003;51986;52.788;41.368;2023-04-03T04:32:58;26.00;22.25;18.00
65383;PMS5003;51986;52.788;41.368;2023-04-03T04:35:26;23.00;21.00;16.00
65383;PMS5003;51986;52.788;41.368;2023-04-03T04:37:53;23.00;20.00;15.00
65383;PMS5003;51986;52.788;41.368;2023-04-03T04:40:20;24.00;21.50;17.00
65383;PMS5003;51986;52.788;41.368;2023-04-03T04:42:48;20.00;20.00;16.00
65383;PMS5003;51986;52.788;41.368;2023-04-03T04:45:15;22.00;20.00;15.00
65383;PMS5003;51986;52.788;41.368;2023-04-03T04:47:44;22.00;19.00;15.00
65383;PMS5003;51986;52.788;41.368;2023-04-03T04:50:11;26.00;22.25;18.00
65383;PMS5003;51986;52.788;41.368;2023-04-03T04:52:39;24.00;22.00;16.00
65383;PMS5003;51986;52.788;41.368;2023-04-03T04:55:08;20.00;17.00;15.00
65383;PMS5003;51986;52.788;41.368;2023-04-03T04:57:35;20.50;18.00;15.00
65383;PMS5003;51986;52.788;41.368;2023-04-03T05:00:03;29.75;24.00;19.00
65383;PMS5003;51986;52.788;41.368;2023-04-03T05:02:30;24.00;21.75;16.25
65383;PMS5003;51986;52.788;41.368;2023-04-03T05:04:57;29.00;24.50;19.75
65383;PMS5003;51986;52.788;41.368;2023-04-03T05:07:27;23.25;20.75;16.00
65383;PMS5003;51986;52.788;41.368;2023-04-03T05:12:42;22.00;20.00;15.00
65383;PMS5003;51986;52.788;41.368;2023-04-03T05:15:09;24.00;21.00;16.00
65383;PMS5003;51986;52.788;41.368;2023-04-03T05:17:36;24.00;22.00;16.00
65383;PMS5003;51986;52.788;41.368;2023-04-03T05:20:05;22.00;20.00;15.00
65383;PMS5003;51986;52.788;41.368;2023-04-03T05:22:33;20.00;19.00;15.00
65383;PMS5003;51986;52.788;41.368;2023-04-03T05:25:05;25.00;22.50;18.50
65383;PMS5003;51986;52.788;41.368;2023-04-03T05:27:32;31.75;26.25;20.50
65383;PMS5003;51986;52.788;41.368;2023-04-03T05:30:01;31.50;26.50;20.50
65383;PMS5003;51986;52.788;41.368;2023-04-03T05:32:29;30.00;25.25;19.50
65383;PMS5003;51986;52.788;41.368;2023-04-03T05:35:10;31.50;26.50;20.00
65383;PMS5003;51986;52.788;41.368;2023-04-03T05:37:39;26.25;23.00;18.00
65383;PMS5003;51986;52.788;41.368;2023-04-03T05:40:07;28.75;24.00;19.00
65383;PMS5003;51986;52.788;41.368;2023-04-03T05:42:38;32.00;27.25;20.75
65383;PMS5003;51986;52.788;41.368;2023-04-03T05:45:05;32.25;27.00;21.00
65383;PMS5003;51986;52.788;41.368;2023-04-03T05:47:32;33.50;28.00;21.00
65383;PMS5003;51986;52.788;41.368;2023-04-03T05:49:59;34.50;28.50;22.25
65383;PMS5003;51986;52.788;41.368;2023-04-03T05:52:28;30.75;26.00;20.00
65383;PMS5003;51986;52.788;41.368;2023-04-03T05:54:57;33.00;27.75;21.50
65383;PMS5003;51986;52.788;41.368;2023-04-03T05:57:26;34.50;28.50;22.00
65383;PMS5003;51986;52.788;41.368;2023-04-03T05:59:54;31.25;26.00;20.00
65383;PMS5003;51986;52.788;41.368;2023-04-03T06:02:22;31.25;27.25;21.00
65383;PMS5003;51986;52.788;41.368;2023-04-03T06:04:51;31.50;27.00;20.00
65383;PMS5003;51986;52.788;41.368;2023-04-03T06:10:04;28.00;23.75;18.75
65383;PMS5003;51986;52.788;41.368;2023-04-03T06:12:32;24.50;23.00;18.00
65383;PMS5003;51986;52.788;41.368;2023-04-03T06:14:59;29.50;26.00;21.00
65383;PMS5003;51986;52.788;41.368;2023-04-03T06:17:26;33.00;28.00;22.00
65383;PMS5003;51986;52.788;41.368;2023-04-03T06:19:53;31.00;26.50;21.00
65383;PMS5003;51986;52.788;41.368;2023-04-03T06:22:20;29.00;25.00;20.00
65383;PMS5003;51986;52.788;41.368;2023-04-03T06:24:47;29.00;25.00;19.00
65383;PMS5003;51986;52.788;41.368;2023-04-03T06:27:14;28.00;24.00;19.00
65383;PMS5003;51986;52.788;41.368;2023-04-03T06:29:41;32.75;28.00;21.75
65383;PMS5003;51986;52.788;41.368;2023-04-03T06:32:08;33.00;28.00;22.00
65383;PMS5003;51986;52.788;41.368;2023-04-03T06:34:35;30.75;26.00;21.00
65383;PMS5003;51986;52.788;41.368;2023-04-03T06:37:01;28.00;24.00;19.00
65383;PMS5003;51986;52.788;41.368;2023-04-03T06:39:28;28.00;25.00;20.00
65383;PMS5003;51986;52.788;41.368;2023-04-03T06:41:55;28.25;24.50;19.50
65383;PMS5003;51986;52.788;41.368;2023-04-03T06:44:33;29.00;24.50;19.50
65383;PMS5003;51986;52.788;41.368;2023-04-03T06:47:00;31.50;26.50;20.50
65383;PMS5003;51986;52.788;41.368;2023-04-03T06:49:27;33.00;28.00;22.00
65383;PMS5003;51986;52.788;41.368;2023-04-03T06:51:54;33.50;28.75;22.00
65383;PMS5003;51986;52.788;41.368;2023-04-03T06:54:22;33.50;28.00;21.00
65383;PMS5003;51986;52.788;41.368;2023-04-03T06:56:49;30.00;25.00;20.00
65383;PMS5003;51986;52.788;41.368;2023-04-03T06:59:16;32.00;27.00;21.00
65383;PMS5003;51986;52.788;41.368;2023-04-03T07:01:43;34.75;29.00;23.50
65383;PMS5003;51986;52.788;41.368;2023-04-03T07:04:10;35.00;30.00;23.00
65383;PMS5003;51986;52.788;41.368;2023-04-03T07:06:37;34.75;29.50;23.00
65383;PMS5003;51986;52.788;41.368;2023-04-03T07:09:04;30.50;26.00;20.00
65383;PMS5003;51986;52.788;41.368;2023-04-03T07:11:31;32.00;27.50;22.00
65383;PMS5003;51986;52.788;41.368;2023-04-03T07:13:58;33.00;27.50;22.00
65383;PMS5003;51986;52.788;41.368;2023-04-03T07:16:25;29.25;25.00;19.00
65383;PMS5003;51986;52.788;41.368;2023-04-03T07:18:52;33.00;27.50;21.50
65383;PMS5003;51986;52.788;41.368;2023-04-03T07:21:19;35.00;30.00;22.00
65383;PMS5003;51986;52.788;41.368;2023-04-03T07:23:45;30.00;25.50;20.00
65383;PMS5003;51986;52.788;41.368;2023-04-03T07:26:15;31.00;25.00;19.50
65383;PMS5003;51986;52.788;41.368;2023-04-03T07:28:42;28.50;25.00;20.00
65383;PMS5003;51986;52.788;41.368;2023-04-03T07:31:12;26.25;23.25;19.00
65383;PMS5003;51986;52.788;41.368;2023-04-03T07:33:39;30.50;25.75;19.75
65383;PMS5003;51986;52.788;41.368;2023-04-03T07:36:07;29.00;25.00;19.50
65383;PMS5003;51986;52.788;41.368;2023-04-03T07:38:36;26.50;23.25;19.00
65383;PMS5003;51986;52.788;41.368;2023-04-03T07:41:03;27.00;23.00;19.00
65383;PMS5003;51986;52.788;41.368;2023-04-03T07:43:31;26.75;23.00;19.00
65383;PMS5003;51986;52.788;41.368;2023-04-03T07:45:58;32.25;27.25;21.50
65383;PMS5003;51986;52.788;41.368;2023-04-03T07:48:26;34.00;28.25;23.00
65383;PMS5003;51986;52.788;41.368;2023-04-03T07:50:53;31.25;27.00;21.25
65383;PMS5003;51986;52.788;41.368;2023-04-03T07:53:20;32.00;27.75;22.00
65383;PMS5003;51986;52.788;41.368;2023-04-03T07:55:47;34.50;29.00;23.00
65383;PMS5003;51986;52.788;41.368;2023-04-03T07:58:17;33.00;27.50;22.00
65383;PMS5003;51986;52.788;41.368;2023-04-03T08:00:44;28.75;25.50;20.00
65383;PMS5003;51986;52.788;41.368;2023-04-03T08:03:12;28.00;24.00;20.00
65383;PMS5003;51986;52.788;41.368;2023-04-03T08:05:41;26.50;23.25;19.00
65383;PMS5003;51986;52.788;41.368;2023-04-03T08:08:10;27.50;23.50;19.25
65383;PMS5003;51986;52.788;41.368;2023-04-03T08:10:39;29.00;25.00;20.00
65383;PMS5003;51986;52.788;41.368;2023-04-03T08:13:06;31.00;26.00;20.50
65383;PMS5003;51986;52.788;41.368;2023-04-03T08:15:35;35.75;30.75;23.00
65383;PMS5003;51986;52.788;41.368;2023-04-03T08:18:03;34.25;28.00;22.00
65383;PMS5003;51986;52.788;41.368;2023-04-03T08:20:30;31.50;27.00;21.00
65383;PMS5003;51986;52.788;41.368;2023-04-03T08:22:57;30.50;25.75;20.00
65383;PMS5003;51986;52.788;41.368;2023-04-03T08:25:24;29.00;25.00;20.00
65383;PMS5003;51986;52.788;41.368;2023-04-03T08:27:51;32.50;28.00;22.00
65383;PMS5003;51986;52.788;41.368;2023-04-03T08:30:18;32.00;28.00;22.00
65383;PMS5003;51986;52.788;41.368;2023-04-03T08:32:45;28.00;25.00;20.00
65383;PMS5003;51986;52.788;41.368;2023-04-03T08:35:12;30.50;26.50;21.25
65383;PMS5003;51986;52.788;41.368;2023-04-03T08:37:39;28.00;25.00;21.00
65383;PMS5003;51986;52.788;41.368;2023-04-03T08:40:07;28.00;25.00;20.00
65383;PMS5003;51986;52.788;41.368;2023-04-03T08:48:36;31.50;27.00;21.50
65383;PMS5003;51986;52.788;41.368;2023-04-03T08:51:14;31.00;27.00;21.00
65383;PMS5003;51986;52.788;41.368;2023-04-03T08:54:06;30.25;26.50;21.00
65383;PMS5003;51986;52.788;41.368;2023-04-03T08:56:41;32.50;28.50;22.00
65383;PMS5003;51986;52.788;41.368;2023-04-03T08:59:12;35.00;30.00;23.00
65383;PMS5003;51986;52.788;41.368;2023-04-03T09:01:46;34.50;29.00;23.00
65383;PMS5003;51986;52.788;41.368;2023-04-03T09:04:14;33.00;29.00;23.00
65383;PMS5003;51986;52.788;41.368;2023-04-03T09:06:49;36.50;30.00;23.50
65383;PMS5003;51986;52.788;41.368;2023-04-03T09:16:59;32.00;27.75;22.00
65383;PMS5003;51986;52.788;41.368;2023-04-03T09:22:17;33.75;28.50;22.50
65383;PMS5003;51986;52.788;41.368;2023-04-03T09:24:58;35.00;30.00;24.00
65383;PMS5003;51986;52.788;41.368;2023-04-03T09:27:30;34.00;29.00;24.00
65383;PMS5003;51986;52.788;41.368;2023-04-03T09:29:57;34.75;29.00;23.75
65383;PMS5003;51986;52.788;41.368;2023-04-03T09:34:57;36.00;30.00;24.00
65383;PMS5003;51986;52.788;41.368;2023-04-03T09:37:58;35.75;28.75;23.00
65383;PMS5003;51986;52.788;41.368;2023-04-03T09:40:49;34.00;29.00;24.00
65383;PMS5003;51986;52.788;41.368;2023-04-03T09:43:30;35.00;29.25;23.00
65383;PMS5003;51986;52.788;41.368;2023-04-03T09:46:41;35.00;30.00;23.00
65383;PMS5003;51986;52.788;41.368;2023-04-03T09:49:03;35.50;30.00;24.00
65383;PMS5003;51986;52.788;41.368;2023-04-03T09:51:35;35.50;30.00;24.00
65383;PMS5003;51986;52.788;41.368;2023-04-03T09:54:23;35.75;30.00;24.00
65383;PMS5003;51986;52.788;41.368;2023-04-03T09:57:01;36.50;30.00;24.00
65383;PMS5003;51986;52.788;41.368;2023-04-03T09:59:33;36.50;31.00;24.00
65383;PMS5003;51986;52.788;41.368;2023-04-03T10:02:16;37.00;32.00;25.00
65383;PMS5003;51986;52.788;41.368;2023-04-03T10:04:49;35.00;30.00;24.00
65383;PMS5003;51986;52.788;41.368;2023-04-03T10:07:35;35.00;30.00;24.00
65383;PMS5003;51986;52.788;41.368;2023-04-03T10:10:22;36.00;31.00;24.00
65383;PMS5003;51986;52.788;41.368;2023-04-03T10:13:03;35.00;30.00;24.00
65383;PMS5003;51986;52.788;41.368;2023-04-03T10:15:34;38.00;31.00;25.00
65383;PMS5003;51986;52.788;41.368;2023-04-03T10:18:10;36.00;31.00;25.00
65383;PMS5003;51986;52.788;41.368;2023-04-03T10:21:05;36.00;30.25;25.00
65383;PMS5003;51986;52.788;41.368;2023-04-03T10:23:54;36.25;31.00;25.00
65383;PMS5003;51986;52.788;41.368;2023-04-03T10:34:42;35.50;30.00;24.00
65383;PMS5003;51986;52.788;41.368;2023-04-03T10:37:34;35.00;30.00;24.00
65383;PMS5003;51986;52.788;41.368;2023-04-03T10:40:23;35.75;30.50;24.00
65383;PMS5003;51986;52.788;41.368;2023-04-03T10:57:01;36.00;31.00;24.00
65383;PMS5003;51986;52.788;41.368;2023-04-03T11:00:01;37.00;31.00;25.00
65383;PMS5003;51986;52.788;41.368;2023-04-03T11:02:38;36.00;30.00;25.00
65383;PMS5003;51986;52.788;41.368;2023-04-03T11:05:17;34.00;29.00;24.00
65383;PMS5003;51986;52.788;41.368;2023-04-03T11:07:52;36.50;30.00;24.00
65383;PMS5003;51986;52.788;41.368;2023-04-03T11:10:31;36.00;31.00;24.00
65383;PMS5003;51986;52.788;41.368;2023-04-03T11:15:51;36.00;30.50;24.50
65383;PMS5003;51986;52.788;41.368;2023-04-03T11:18:25;35.50;30.25;24.00
65383;PMS5003;51986;52.788;41.368;2023-04-03T11:21:07;36.00;30.00;24.00
65383;PMS5003;51986;52.788;41.368;2023-04-03T11:23:46;35.00;30.00;24.00
65383;PMS5003;51986;52.788;41.368;2023-04-03T11:26:22;34.75;30.00;24.00
65383;PMS5003;51986;52.788;41.368;2023-04-03T11:29:04;34.00;29.00;24.00
65383;PMS5003;51986;52.788;41.368;2023-04-03T11:36:56;33.00;29.00;23.00
65383;PMS5003;51986;52.788;41.368;2023-04-03T11:39:33;34.00;30.00;24.00
65383;PMS5003;51986;52.788;41.368;2023-04-03T11:44:51;36.00;30.00;24.00
65383;PMS5003;51986;52.788;41.368;2023-04-03T11:47:46;35.00;30.00;24.00
65383;PMS5003;51986;52.788;41.368;2023-04-03T11:53:46;36.00;29.75;24.00
65383;PMS5003;51986;52.788;41.368;2023-04-03T12:01:45;36.00;30.50;24.00
65383;PMS5003;51986;52.788;41.368;2023-04-03T12:04:12;35.50;30.00;24.00
65383;PMS5003;51986;52.788;41.368;2023-04-03T12:06:42;36.00;30.00;24.00
65383;PMS5003;51986;52.788;41.368;2023-04-03T12:10:00;36.00;29.00;23.00
65383;PMS5003;51986;52.788;41.368;2023-04-03T12:12:26;35.50;29.50;24.00
65383;PMS5003;51986;52.788;41.368;2023-04-03T12:14:54;34.00;29.00;23.00
65383;PMS5003;51986;52.788;41.368;2023-04-03T12:17:26;35.25;30.00;23.75
65383;PMS5003;51986;52.788;41.368;2023-04-03T12:19:54;35.25;30.25;24.00
65383;PMS5003;51986;52.788;41.368;2023-04-03T12:22:21;34.00;29.00;23.25
65383;PMS5003;51986;52.788;41.368;2023-04-03T12:24:50;34.75;30.00;24.00
65383;PMS5003;51986;52.788;41.368;2023-04-03T12:51:06;36.00;30.00;24.00
65383;PMS5003;51986;52.788;41.368;2023-04-03T12:53:35;34.00;30.00;25.00
65383;PMS5003;51986;52.788;41.368;2023-04-03T12:58:51;33.50;29.00;23.00
65383;PMS5003;51986;52.788;41.368;2023-04-03T13:01:23;36.00;30.00;24.00
65383;PMS5003;51986;52.788;41.368;2023-04-03T13:03:53;36.00;31.00;24.00
65383;PMS5003;51986;52.788;41.368;2023-04-03T13:06:32;35.00;29.50;24.00
65383;PMS5003;51986;52.788;41.368;2023-04-03T13:09:06;36.00;30.00;24.00
65383;PMS5003;51986;52.788;41.368;2023-04-03T13:12:13;36.00;31.00;24.00
65383;PMS5003;51986;52.788;41.368;2023-04-03T13:14:52;35.75;30.50;24.00
65383;PMS5003;51986;52.788;41.368;2023-04-03T13:17:25;38.00;31.00;24.00
65383;PMS5003;51986;52.788;41.368;2023-04-03T13:19:53;35.00;30.00;23.00
65383;PMS5003;51986;52.788;41.368;2023-04-03T13:22:34;35.75;30.75;24.00
65383;PMS5003;51986;52.788;41.368;2023-04-03T13:25:04;36.50;30.50;24.50
65383;PMS5003;51986;52.788;41.368;2023-04-03T13:27:36;34.75;29.75;24.00
65383;PMS5003;51986;52.788;41.368;2023-04-03T13:30:05;36.00;30.00;24.00
65383;PMS5003;51986;52.788;41.368;2023-04-03T13:32:33;35.75;30.00;24.00
65383;PMS5003;51986;52.788;41.368;2023-04-03T13:35:00;34.50;30.00;24.00
65383;PMS5003;51986;52.788;41.368;2023-04-03T13:37:53;35.00;30.00;24.00
65383;PMS5003;51986;52.788;41.368;2023-04-03T13:40:21;36.00;31.00;24.00
65383;PMS5003;51986;52.788;41.368;2023-04-03T13:42:59;37.00;31.50;25.00
65383;PMS5003;51986;52.788;41.368;2023-04-03T13:46:05;37.00;31.00;24.00
65383;PMS5003;51986;52.788;41.368;2023-04-03T13:48:52;36.75;31.00;24.00
65383;PMS5003;51986;52.788;41.368;2023-04-03T13:53:51;36.50;30.00;24.00
65383;PMS5003;51986;52.788;41.368;2023-04-03T13:56:23;35.50;29.00;24.00
65383;PMS5003;51986;52.788;41.368;2023-04-03T14:01:33;36.00;30.00;24.00
65383;PMS5003;51986;52.788;41.368;2023-04-03T14:04:14;36.00;30.00;25.00
65383;PMS5003;51986;52.788;41.368;2023-04-03T14:06:45;34.00;29.00;24.00
65383;PMS5003;51986;52.788;41.368;2023-04-03T14:09:13;35.00;29.50;24.00
65383;PMS5003;51986;52.788;41.368;2023-04-03T14:11:40;35.00;29.25;24.00
65383;PMS5003;51986;52.788;41.368;2023-04-03T14:14:21;36.00;30.00;23.75
65383;PMS5003;51986;52.788;41.368;2023-04-03T14:16:54;35.50;30.50;24.00
65383;PMS5003;51986;52.788;41.368;2023-04-03T14:19:24;38.50;32.50;25.50
65383;PMS5003;51986;52.788;41.368;2023-04-03T14:21:54;38.00;32.00;25.00
65383;PMS5003;51986;52.788;41.368;2023-04-03T14:24:22;38.50;32.00;24.50
65383;PMS5003;51986;52.788;41.368;2023-04-03T14:26:51;37.25;31.00;25.00
65383;PMS5003;51986;52.788;41.368;2023-04-03T14:29:20;37.50;31.50;25.00
65383;PMS5003;51986;52.788;41.368;2023-04-03T14:31:48;36.00;30.00;24.00
65383;PMS5003;51986;52.788;41.368;2023-04-03T14:34:29;36.00;29.75;24.00
65383;PMS5003;51986;52.788;41.368;2023-04-03T14:36:56;35.50;30.00;24.00
65383;PMS5003;51986;52.788;41.368;2023-04-03T14:39:23;35.00;30.00;24.00
65383;PMS5003;51986;52.788;41.368;2023-04-03T14:41:50;36.75;31.00;24.00
65383;PMS5003;51986;52.788;41.368;2023-04-03T14:44:17;36.25;31.00;24.00
65383;PMS5003;51986;52.788;41.368;2023-04-03T14:46:44;38.50;31.00;24.00
65383;PMS5003;51986;52.788;41.368;2023-04-03T14:49:25;37.00;31.00;24.00
65383;PMS5003;51986;52.788;41.368;2023-04-03T14:51:53;36.00;30.00;24.00
65383;PMS5003;51986;52.788;41.368;2023-04-03T14:54:22;36.00;30.75;24.25
65383;PMS5003;51986;52.788;41.368;2023-04-03T14:56:50;35.50;30.50;24.00
65383;PMS5003;51986;52.788;41.368;2023-04-03T14:59:17;34.00;29.50;23.00
65383;PMS5003;51986;52.788;41.368;2023-04-03T15:01:44;34.00;29.00;22.00
65383;PMS5003;51986;52.788;41.368;2023-04-03T15:04:13;33.00;28.00;22.00
65383;PMS5003;51986;52.788;41.368;2023-04-03T15:06:41;35.00;29.50;23.00
65383;PMS5003;51986;52.788;41.368;2023-04-03T15:09:25;35.75;30.00;24.00
65383;PMS5003;51986;52.788;41.368;2023-04-03T15:11:53;35.00;29.50;24.00
65383;PMS5003;51986;52.788;41.368;2023-04-03T15:14:21;36.00;30.00;24.00
65383;PMS5003;51986;52.788;41.368;2023-04-03T15:17:03;36.00;30.25;24.00
65383;PMS5003;51986;52.788;41.368;2023-04-03T15:19:32;36.00;30.00;23.75
65383;PMS5003;51986;52.788;41.368;2023-04-03T15:22:04;33.50;28.75;23.00
65383;PMS5003;51986;52.788;41.368;2023-04-03T15:24:31;34.00;28.50;23.00
65383;PMS5003;51986;52.788;41.368;2023-04-03T15:26:59;33.00;27.75;22.00
65383;PMS5003;51986;52.788;41.368;2023-04-03T15:29:27;34.00;29.00;23.00
65383;PMS5003;51986;52.788;41.368;2023-04-03T15:31:54;32.00;27.25;22.00
65383;PMS5003;51986;52.788;41.368;2023-04-03T15:34:21;34.00;29.00;23.25
65383;PMS5003;51986;52.788;41.368;2023-04-03T15:36:49;33.50;28.00;22.00
65383;PMS5003;51986;52.788;41.368;2023-04-03T15:39:16;33.50;28.75;23.00
65383;PMS5003;51986;52.788;41.368;2023-04-03T15:41:44;35.25;29.50;24.00
65383;PMS5003;51986;52.788;41.368;2023-04-03T15:44:11;36.00;30.00;23.00